Kawkawlin, MI (48631)

11:27 PM EDT on July 24, 2016 (GMT -0400)
Killarney Beach | | Change Station

Elev 581 ft 43.69 °N, 83.92 °W | Updated 30 seconds ago

Partly Cloudy
Partly Cloudy
81.1 °F
Feels Like 88 °F
N
1.0
Wind Variable Wind from WSW
Gusts 8.0 mph

Today
High -- | Low -- °F
--% Chance of Precip.
Yesterday
High -- | Low -- °F
Precip. -- in
Pressure 29.83 in
Visibility 10.0 miles
Clouds Few 8500 ft
Heat Index 88 °F
Dew Point 77 °F
Humidity 87%
Rainfall 0.19 in
Snow Depth Not available.
6:17 AM 9:07 PM
Waning Gibbous, 70% visible
METAR KMBS 250253Z 20008KT 10SM FEW085 28/25 A2984 RMK AO2 SLP101 T02780250 56003
Pressure 29.83 in
Visibility 10.0 miles
Clouds Few 8500 ft
Heat Index 88 °F
Dew Point 77 °F
Humidity 87%
Rainfall 0.19 in
Snow Depth Not available.
6:17 AM 9:07 PM
Waning Gibbous, 70% visible
METAR KMBS 250253Z 20008KT 10SM FEW085 28/25 A2984 RMK AO2 SLP101 T02780250 56003

10-Day Weather Forecast

Almanac

Astronomy

Jul. 24, 2016 Rise Set
Actual Time
Civil Twilight
Nautical Twilight
Astronomical Twilight
Moon
Length of Visible Light
Length of Day
Tomorrow will be .
, % of the Moon is Illuminated

Today's Extremes

State Highs State Lows

Community

WunderPhotos

Upload Photos

1,927,256 photos uploaded!

WunderBlog® & News

Nearby

Air Quality

  Air Quality AQ Index Pollutant
Not available.

Snow Depth

Station Depth Elevation

Earthquake Activity

City Distance Mag. Time & Date
Minimum magnitude displayed is 2.5.

Coastal Water Temperatures

Place Temperature

Stations

Nearby Weather Stations

Station Location Temp. Windchill Dew Point Humidity Wind Precip. Elev Updated Type
                   

Watches & Warnings

There are currently no watches in effect.